»·PEaware :: N54073 KBOI-KSUN

N54073 :: KBOI-KSUN

FLIGHT INFORMATION

Flight Status: Arrived
Operator: Privately registered:
United States
More flights under this callsign
Pilot: Anonymous 27411 (27411)
Aircraft: BEECH AIRCRAFT BARON
(BE58)
More flights by this aircraft type
Origin: KBOI Boise Air Terminal/Gowen
United States
Destination: KSUN Friedman Meml
United States
More flights between these airports :: More routes between these airports
Route: BOI3 BOI AROWS V500 DERSO V500 PRESN
File this flight plan on PilotEdge
Remarks: thank you!
Altitude:
(Current/Filed)
11,000ft
Speed:
(Current/Filed)
175kts
Departed: 07-Nov-21 06:01 PM
Arrived: 07-Nov-21 06:40 PM
Distance/Time
Traveled:
84nm/0:39
Distance/Time
To Go:
Arrived

Flight Plot

Page will automatically refresh every two minutes.

Flight plan parsing failed; only flown route is shown


Map Options




Map Legend


Flown Route
Filed Route
Departure Airport
Arrival Airport
Navaid (VOR, NDB)
Fix

Horizontal Profiles

Position Reports

Time Latitude Longitude Heading Altitude Ground
Speed
07-Nov-21 17:24 43.564054 -116.236304 175 2875ft 0kts
07-Nov-21 17:25 43.564054 -116.236304 175 2875ft 0kts
07-Nov-21 17:26 43.564054 -116.236304 175 2875ft 0kts
07-Nov-21 17:27 43.564054 -116.236304 175 2875ft 0kts
07-Nov-21 17:28 43.564054 -116.236304 175 2875ft 0kts
07-Nov-21 17:29 43.564054 -116.236304 175 2875ft 0kts
07-Nov-21 17:30 43.564054 -116.236304 175 2875ft 0kts
07-Nov-21 17:31 43.564054 -116.236304 175 2875ft 0kts
07-Nov-21 17:32 43.564054 -116.236304 175 2875ft 0kts
07-Nov-21 17:33 43.564054 -116.236304 175 2875ft 0kts
07-Nov-21 17:34 43.564054 -116.236304 175 2875ft 0kts
07-Nov-21 17:35 43.564054 -116.236304 175 2875ft 0kts
07-Nov-21 17:36 43.564054 -116.236304 175 2875ft 0kts
07-Nov-21 17:37 43.564054 -116.236304 175 2875ft 0kts
07-Nov-21 17:38 43.564054 -116.236304 175 2875ft 0kts
07-Nov-21 17:39 43.564054 -116.236304 175 2875ft 0kts
07-Nov-21 17:40 43.564054 -116.236304 175 2875ft 0kts
07-Nov-21 17:41 43.564054 -116.236304 175 2875ft 0kts
07-Nov-21 17:42 43.564054 -116.236304 175 2875ft 0kts
07-Nov-21 17:43 43.564054 -116.236304 175 2875ft 0kts
07-Nov-21 17:44 43.564054 -116.236304 175 2875ft 0kts
07-Nov-21 17:45 43.564054 -116.236304 175 2875ft 0kts
07-Nov-21 17:46 43.564305 -116.236423 285 2875ft 5kts
07-Nov-21 17:47 43.564687 -116.238367 267 2875ft 7kts
07-Nov-21 17:48 43.564922 -116.240284 354 2875ft 9kts
07-Nov-21 17:49 43.565814 -116.241553 266 2875ft 5kts
07-Nov-21 17:50 43.568017 -116.242681 359 2875ft 0kts
07-Nov-21 17:51 43.568017 -116.242681 359 2875ft 0kts
07-Nov-21 17:52 43.568017 -116.242681 359 2875ft 0kts
07-Nov-21 17:53 43.568017 -116.242681 359 2875ft 0kts
07-Nov-21 17:54 43.568017 -116.242681 359 2875ft 0kts
07-Nov-21 17:55 43.568017 -116.242681 359 2875ft 0kts
07-Nov-21 17:56 43.568017 -116.242681 359 2875ft 0kts
07-Nov-21 17:57 43.568017 -116.242681 359 2875ft 0kts
07-Nov-21 17:58 43.568909 -116.242648 1 2875ft 11kts
07-Nov-21 17:59 43.569135 -116.242644 1 2875ft 4kts
07-Nov-21 18:00 43.565601 -116.229362 112 2960ft 110kts
07-Nov-21 18:01 43.551271 -116.190500 115 4574ft 108kts
07-Nov-21 18:02 43.538156 -116.149951 113 5785ft 133kts
07-Nov-21 18:03 43.521634 -116.104999 111 7026ft 137kts
07-Nov-21 18:04 43.511334 -116.055286 94 8111ft 141kts
07-Nov-21 18:05 43.507652 -116.004043 97 9252ft 138kts
07-Nov-21 18:06 43.502403 -115.950294 96 10161ft 144kts
07-Nov-21 18:07 43.495235 -115.895933 97 10923ft 154kts
07-Nov-21 18:08 43.487571 -115.831761 106 10910ft 184kts
07-Nov-21 18:09 43.477087 -115.762996 101 11070ft 183kts
07-Nov-21 18:10 43.464913 -115.692763 104 10939ft 191kts
07-Nov-21 18:11 43.450952 -115.623591 106 10972ft 190kts
07-Nov-21 18:12 43.439051 -115.552979 103 10974ft 191kts
07-Nov-21 18:13 43.425919 -115.482927 103 11028ft 188kts
07-Nov-21 18:14 43.413311 -115.412860 102 10990ft 191kts
07-Nov-21 18:15 43.400057 -115.342664 103 11042ft 187kts
07-Nov-21 18:16 43.388453 -115.272609 102 11047ft 188kts
07-Nov-21 18:17 43.377208 -115.201991 101 11049ft 188kts
07-Nov-21 18:18 43.365286 -115.131333 106 11027ft 188kts
07-Nov-21 18:19 43.352859 -115.061731 103 10983ft 188kts
07-Nov-21 18:20 43.339963 -114.993482 106 11009ft 185kts
07-Nov-21 18:21 43.328198 -114.925247 103 10947ft 186kts
07-Nov-21 18:22 43.312253 -114.859182 104 10967ft 183kts
07-Nov-21 18:23 43.299700 -114.792313 103 11023ft 181kts
07-Nov-21 18:24 43.286700 -114.724804 104 10978ft 183kts
07-Nov-21 18:25 43.272563 -114.657659 103 10931ft 185kts
07-Nov-21 18:26 43.260342 -114.590150 104 10978ft 182kts
07-Nov-21 18:27 43.247649 -114.523098 104 11018ft 182kts
07-Nov-21 18:28 43.234698 -114.456010 105 11092ft 178kts
07-Nov-21 18:29 43.222034 -114.388497 100 10966ft 185kts
07-Nov-21 18:30 43.211500 -114.321131 79 10950ft 183kts
07-Nov-21 18:31 43.248271 -114.268958 37 9803ft 201kts
07-Nov-21 18:32 43.292466 -114.222867 36 8773ft 197kts
07-Nov-21 18:33 43.333637 -114.179816 22 8820ft 162kts
07-Nov-21 18:34 43.369487 -114.191207 324 7850ft 132kts
07-Nov-21 18:35 43.401518 -114.216528 323 7468ft 124kts
07-Nov-21 18:36 43.432898 -114.241552 332 6967ft 136kts
07-Nov-21 18:37 43.467208 -114.265551 334 6034ft 137kts
07-Nov-21 18:38 43.496598 -114.288559 325 5342ft 84kts
07-Nov-21 18:39 43.503945 -114.296009 239 5323ft 11kts
07-Nov-21 18:40 43.503453 -114.296712 146 5323ft 2kts
07-Nov-21 18:42 43.500118 -114.293465 143 5323ft 18kts
07-Nov-21 18:43 43.498884 -114.293084 317 5323ft 0kts

Navigation Log

Ident Type
Flight plan parsing failed, navigation log unavailable